CheckWX is a tool to help pilots better visualize weather data.  It is not intended as a substitute for an official pre-flight weather briefing.

08:04:05 UTC

KVPS TAF
Eglin AFB / Destin-Ft Walton Beach Airport
Valparaiso/Destin-Ft Walton Beach, Florida, USA
TAF KVPS 190100Z 1901/2007 03009KT 9999 SCT210 QNH3021INS WND 04012KT AFT 1911 BECMG 1914/1915 04010G15KT 9999 FEW210 QNH3020INS WND 02009KT AFT 2001 TX17/1920Z TN08/1910Z

Mar-19@
01:00 UTC

Mar-19 @ 01:00 UTC

Mar-19@
14:00 UTC

Mar-19 @ 14:00 UTC

TAF KVPS 190100Z 1901/2007 03009KT 9999 SCT210 QNH3021INS WND 04012KT AFT 1911
Wind
  • 030° at 9 KTS
Cloud Levels
  • Scattered at 21,000' AGL

Mar-19@
14:00 UTC

Mar-19 @ 14:00 UTC

Mar-20@
07:00 UTC

Mar-20 @ 07:00 UTC

BECMG 1914/1915 04010G15KT 9999 FEW210 QNH3020INS WND 02009KT AFT 2001 TX17/1920Z TN08/1910Z

Becoming

Becoming Conditions expected by Tue, Mar 19, 2019 @ 15:00 UTC

Wind
  • 040° at 10 KTS
  • {Gusting to 15 KTS
Cloud Levels
  • Few at 21,000' AGL